sensor_id;sensor_type;location;lat;lon;timestamp;P1;durP1;ratioP1;P2;durP2;ratioP2
33864;SDS011;20159;51.072;13.526;2023-02-20T00:00:04;7.85;;;7.05;;
33864;SDS011;20159;51.072;13.526;2023-02-20T00:02:31;8.35;;;7.32;;
33864;SDS011;20159;51.072;13.526;2023-02-20T00:04:56;9.98;;;7.43;;
33864;SDS011;20159;51.072;13.526;2023-02-20T00:07:22;8.60;;;7.38;;
33864;SDS011;20159;51.072;13.526;2023-02-20T00:09:47;8.25;;;7.45;;
33864;SDS011;20159;51.072;13.526;2023-02-20T00:12:13;9.20;;;7.72;;
33864;SDS011;20159;51.072;13.526;2023-02-20T00:14:38;9.48;;;7.57;;
33864;SDS011;20159;51.072;13.526;2023-02-20T00:17:04;8.55;;;6.88;;
33864;SDS011;20159;51.072;13.526;2023-02-20T00:19:29;8.45;;;7.65;;
33864;SDS011;20159;51.072;13.526;2023-02-20T00:21:55;8.35;;;7.55;;
33864;SDS011;20159;51.072;13.526;2023-02-20T00:24:20;7.47;;;6.68;;
33864;SDS011;20159;51.072;13.526;2023-02-20T00:26:49;8.05;;;6.68;;
33864;SDS011;20159;51.072;13.526;2023-02-20T00:29:17;7.90;;;7.10;;
33864;SDS011;20159;51.072;13.526;2023-02-20T00:31:49;7.70;;;6.88;;
33864;SDS011;20159;51.072;13.526;2023-02-20T00:34:15;8.13;;;6.70;;
33864;SDS011;20159;51.072;13.526;2023-02-20T00:36:41;7.45;;;6.75;;
33864;SDS011;20159;51.072;13.526;2023-02-20T00:39:06;7.95;;;7.15;;
33864;SDS011;20159;51.072;13.526;2023-02-20T00:41:32;7.45;;;6.20;;
33864;SDS011;20159;51.072;13.526;2023-02-20T00:43:57;7.85;;;6.57;;
33864;SDS011;20159;51.072;13.526;2023-02-20T00:46:22;9.23;;;7.45;;
33864;SDS011;20159;51.072;13.526;2023-02-20T00:48:48;7.38;;;6.68;;
33864;SDS011;20159;51.072;13.526;2023-02-20T00:51:14;6.90;;;6.20;;
33864;SDS011;20159;51.072;13.526;2023-02-20T00:53:40;7.20;;;6.50;;
33864;SDS011;20159;51.072;13.526;2023-02-20T00:56:06;6.82;;;6.13;;
33864;SDS011;20159;51.072;13.526;2023-02-20T00:58:31;6.82;;;6.13;;
33864;SDS011;20159;51.072;13.526;2023-02-20T01:00:57;7.13;;;6.32;;
33864;SDS011;20159;51.072;13.526;2023-02-20T01:03:22;6.97;;;6.28;;
33864;SDS011;20159;51.072;13.526;2023-02-20T01:05:48;6.65;;;5.85;;
33864;SDS011;20159;51.072;13.526;2023-02-20T01:08:13;7.03;;;6.32;;
33864;SDS011;20159;51.072;13.526;2023-02-20T01:10:39;6.53;;;5.93;;
33864;SDS011;20159;51.072;13.526;2023-02-20T01:13:04;7.03;;;6.32;;
33864;SDS011;20159;51.072;13.526;2023-02-20T01:15:30;6.75;;;6.05;;
33864;SDS011;20159;51.072;13.526;2023-02-20T01:17:55;7.68;;;6.05;;
33864;SDS011;20159;51.072;13.526;2023-02-20T01:20:21;7.63;;;6.93;;
33864;SDS011;20159;51.072;13.526;2023-02-20T01:22:46;7.30;;;6.20;;
33864;SDS011;20159;51.072;13.526;2023-02-20T01:25:12;7.32;;;6.63;;
33864;SDS011;20159;51.072;13.526;2023-02-20T01:27:37;7.60;;;6.78;;
33864;SDS011;20159;51.072;13.526;2023-02-20T01:30:03;7.53;;;6.53;;
33864;SDS011;20159;51.072;13.526;2023-02-20T01:32:29;7.20;;;6.30;;
33864;SDS011;20159;51.072;13.526;2023-02-20T01:34:54;7.13;;;6.43;;
33864;SDS011;20159;51.072;13.526;2023-02-20T01:37:20;7.45;;;6.75;;
33864;SDS011;20159;51.072;13.526;2023-02-20T01:39:46;7.22;;;6.55;;
33864;SDS011;20159;51.072;13.526;2023-02-20T01:42:13;7.50;;;6.80;;
33864;SDS011;20159;51.072;13.526;2023-02-20T01:44:42;8.00;;;7.20;;
33864;SDS011;20159;51.072;13.526;2023-02-20T01:47:09;9.38;;;7.18;;
33864;SDS011;20159;51.072;13.526;2023-02-20T01:49:40;7.90;;;7.20;;
33864;SDS011;20159;51.072;13.526;2023-02-20T01:52:14;9.40;;;8.40;;
33864;SDS011;20159;51.072;13.526;2023-02-20T01:54:45;8.65;;;7.75;;
33864;SDS011;20159;51.072;13.526;2023-02-20T01:57:17;8.93;;;8.02;;
33864;SDS011;20159;51.072;13.526;2023-02-20T01:59:45;9.25;;;8.35;;
33864;SDS011;20159;51.072;13.526;2023-02-20T02:02:12;10.02;;;9.02;;
33864;SDS011;20159;51.072;13.526;2023-02-20T02:04:39;10.48;;;8.90;;
33864;SDS011;20159;51.072;13.526;2023-02-20T02:07:06;10.25;;;9.15;;
33864;SDS011;20159;51.072;13.526;2023-02-20T02:09:37;10.23;;;8.90;;
33864;SDS011;20159;51.072;13.526;2023-02-20T02:12:08;10.10;;;9.02;;
33864;SDS011;20159;51.072;13.526;2023-02-20T02:14:34;10.88;;;8.93;;
33864;SDS011;20159;51.072;13.526;2023-02-20T02:17:22;10.45;;;9.45;;
33864;SDS011;20159;51.072;13.526;2023-02-20T02:20:19;10.00;;;9.00;;
33864;SDS011;20159;51.072;13.526;2023-02-20T02:23:18;9.98;;;8.57;;
33864;SDS011;20159;51.072;13.526;2023-02-20T02:29:08;9.55;;;8.07;;
33864;SDS011;20159;51.072;13.526;2023-02-20T02:36:58;9.93;;;8.93;;
33864;SDS011;20159;51.072;13.526;2023-02-20T02:42:05;9.30;;;8.20;;
33864;SDS011;20159;51.072;13.526;2023-02-20T02:47:24;9.52;;;8.52;;
33864;SDS011;20159;51.072;13.526;2023-02-20T02:50:02;9.02;;;8.13;;
33864;SDS011;20159;51.072;13.526;2023-02-20T02:52:31;8.88;;;7.97;;
33864;SDS011;20159;51.072;13.526;2023-02-20T02:55:10;11.05;;;8.32;;
33864;SDS011;20159;51.072;13.526;2023-02-20T02:57:36;8.52;;;7.63;;
33864;SDS011;20159;51.072;13.526;2023-02-20T03:02:35;8.23;;;7.43;;
33864;SDS011;20159;51.072;13.526;2023-02-20T03:05:06;9.43;;;7.95;;
33864;SDS011;20159;51.072;13.526;2023-02-20T03:07:34;7.88;;;7.07;;
33864;SDS011;20159;51.072;13.526;2023-02-20T03:10:05;7.43;;;6.63;;
33864;SDS011;20159;51.072;13.526;2023-02-20T03:12:33;7.50;;;6.72;;
33864;SDS011;20159;51.072;13.526;2023-02-20T03:15:03;7.80;;;7.00;;
33864;SDS011;20159;51.072;13.526;2023-02-20T03:18:01;6.72;;;6.03;;
33864;SDS011;20159;51.072;13.526;2023-02-20T03:20:43;7.70;;;6.80;;
33864;SDS011;20159;51.072;13.526;2023-02-20T03:23:17;9.07;;;7.00;;
33864;SDS011;20159;51.072;13.526;2023-02-20T03:25:49;6.85;;;6.18;;
33864;SDS011;20159;51.072;13.526;2023-02-20T03:28:22;7.03;;;6.28;;
33864;SDS011;20159;51.072;13.526;2023-02-20T03:30:55;7.53;;;6.75;;
33864;SDS011;20159;51.072;13.526;2023-02-20T03:33:30;7.35;;;6.07;;
33864;SDS011;20159;51.072;13.526;2023-02-20T03:36:21;7.22;;;6.53;;
33864;SDS011;20159;51.072;13.526;2023-02-20T03:39:11;7.72;;;6.35;;
33864;SDS011;20159;51.072;13.526;2023-02-20T03:41:59;7.00;;;6.18;;
33864;SDS011;20159;51.072;13.526;2023-02-20T03:44:45;9.35;;;7.22;;
33864;SDS011;20159;51.072;13.526;2023-02-20T03:47:12;7.97;;;6.78;;
33864;SDS011;20159;51.072;13.526;2023-02-20T03:49:40;7.53;;;6.70;;
33864;SDS011;20159;51.072;13.526;2023-02-20T03:52:08;6.85;;;6.15;;
33864;SDS011;20159;51.072;13.526;2023-02-20T03:54:34;8.50;;;6.63;;
33864;SDS011;20159;51.072;13.526;2023-02-20T03:57:05;7.38;;;5.93;;
33864;SDS011;20159;51.072;13.526;2023-02-20T03:59:35;7.32;;;6.57;;
33864;SDS011;20159;51.072;13.526;2023-02-20T04:02:29;7.15;;;6.43;;
33864;SDS011;20159;51.072;13.526;2023-02-20T04:04:56;7.97;;;6.30;;
33864;SDS011;20159;51.072;13.526;2023-02-20T04:07:30;6.63;;;5.65;;
33864;SDS011;20159;51.072;13.526;2023-02-20T04:10:06;7.13;;;6.15;;
33864;SDS011;20159;51.072;13.526;2023-02-20T04:12:37;7.53;;;6.00;;
33864;SDS011;20159;51.072;13.526;2023-02-20T04:15:07;7.07;;;6.38;;
33864;SDS011;20159;51.072;13.526;2023-02-20T04:17:45;7.75;;;6.28;;
33864;SDS011;20159;51.072;13.526;2023-02-20T04:20:14;7.43;;;6.43;;
33864;SDS011;20159;51.072;13.526;2023-02-20T04:22:41;7.70;;;6.88;;
33864;SDS011;20159;51.072;13.526;2023-02-20T04:27:52;8.15;;;7.22;;
33864;SDS011;20159;51.072;13.526;2023-02-20T04:30:17;8.00;;;7.18;;
33864;SDS011;20159;51.072;13.526;2023-02-20T04:32:43;8.77;;;7.88;;
33864;SDS011;20159;51.072;13.526;2023-02-20T04:35:11;9.80;;;8.23;;
33864;SDS011;20159;51.072;13.526;2023-02-20T04:37:41;9.65;;;8.43;;
33864;SDS011;20159;51.072;13.526;2023-02-20T04:40:07;8.93;;;8.02;;
33864;SDS011;20159;51.072;13.526;2023-02-20T04:42:34;9.23;;;8.15;;
33864;SDS011;20159;51.072;13.526;2023-02-20T04:45:00;10.90;;;9.05;;
33864;SDS011;20159;51.072;13.526;2023-02-20T04:47:25;11.10;;;8.50;;
33864;SDS011;20159;51.072;13.526;2023-02-20T04:49:51;9.38;;;8.32;;
33864;SDS011;20159;51.072;13.526;2023-02-20T04:52:16;10.35;;;8.80;;
33864;SDS011;20159;51.072;13.526;2023-02-20T04:54:42;9.95;;;8.60;;
33864;SDS011;20159;51.072;13.526;2023-02-20T04:57:07;10.07;;;8.57;;
33864;SDS011;20159;51.072;13.526;2023-02-20T04:59:33;11.30;;;9.52;;
33864;SDS011;20159;51.072;13.526;2023-02-20T05:01:58;11.27;;;9.23;;
33864;SDS011;20159;51.072;13.526;2023-02-20T05:04:25;12.13;;;9.25;;
33864;SDS011;20159;51.072;13.526;2023-02-20T05:06:52;12.60;;;9.77;;
33864;SDS011;20159;51.072;13.526;2023-02-20T05:09:19;10.93;;;9.52;;
33864;SDS011;20159;51.072;13.526;2023-02-20T05:11:45;12.80;;;10.10;;
33864;SDS011;20159;51.072;13.526;2023-02-20T05:14:10;12.63;;;10.30;;
33864;SDS011;20159;51.072;13.526;2023-02-20T05:16:37;11.20;;;9.20;;
33864;SDS011;20159;51.072;13.526;2023-02-20T05:19:04;11.63;;;9.63;;
33864;SDS011;20159;51.072;13.526;2023-02-20T05:21:30;12.57;;;10.10;;
33864;SDS011;20159;51.072;13.526;2023-02-20T05:24:15;11.35;;;9.25;;
33864;SDS011;20159;51.072;13.526;2023-02-20T05:26:40;11.93;;;9.15;;
33864;SDS011;20159;51.072;13.526;2023-02-20T05:29:06;12.25;;;9.32;;
33864;SDS011;20159;51.072;13.526;2023-02-20T05:31:34;12.55;;;10.05;;
33864;SDS011;20159;51.072;13.526;2023-02-20T05:33:59;11.80;;;9.93;;
33864;SDS011;20159;51.072;13.526;2023-02-20T05:36:25;11.60;;;9.73;;
33864;SDS011;20159;51.072;13.526;2023-02-20T05:38:51;11.65;;;9.13;;
33864;SDS011;20159;51.072;13.526;2023-02-20T05:41:17;12.60;;;9.75;;
33864;SDS011;20159;51.072;13.526;2023-02-20T05:43:43;12.18;;;9.93;;
33864;SDS011;20159;51.072;13.526;2023-02-20T05:46:09;13.50;;;9.68;;
33864;SDS011;20159;51.072;13.526;2023-02-20T05:48:35;10.75;;;8.90;;
33864;SDS011;20159;51.072;13.526;2023-02-20T05:51:00;10.43;;;8.77;;
33864;SDS011;20159;51.072;13.526;2023-02-20T05:53:27;11.27;;;9.25;;
33864;SDS011;20159;51.072;13.526;2023-02-20T05:55:53;10.50;;;8.55;;
33864;SDS011;20159;51.072;13.526;2023-02-20T05:58:18;11.23;;;9.20;;
33864;SDS011;20159;51.072;13.526;2023-02-20T06:00:44;10.57;;;8.70;;
33864;SDS011;20159;51.072;13.526;2023-02-20T06:03:10;9.25;;;8.10;;
33864;SDS011;20159;51.072;13.526;2023-02-20T06:05:35;11.18;;;8.65;;
33864;SDS011;20159;51.072;13.526;2023-02-20T06:08:01;10.30;;;8.00;;
33864;SDS011;20159;51.072;13.526;2023-02-20T06:10:26;10.55;;;8.70;;
33864;SDS011;20159;51.072;13.526;2023-02-20T06:12:52;10.70;;;8.43;;
33864;SDS011;20159;51.072;13.526;2023-02-20T06:15:17;9.95;;;8.10;;
33864;SDS011;20159;51.072;13.526;2023-02-20T06:17:43;9.85;;;8.00;;
33864;SDS011;20159;51.072;13.526;2023-02-20T06:20:08;10.18;;;8.38;;
33864;SDS011;20159;51.072;13.526;2023-02-20T06:22:34;10.90;;;8.55;;
33864;SDS011;20159;51.072;13.526;2023-02-20T06:24:59;10.35;;;8.38;;
33864;SDS011;20159;51.072;13.526;2023-02-20T06:27:25;10.50;;;8.52;;
33864;SDS011;20159;51.072;13.526;2023-02-20T06:29:50;10.82;;;8.52;;
33864;SDS011;20159;51.072;13.526;2023-02-20T06:32:16;10.18;;;8.15;;
33864;SDS011;20159;51.072;13.526;2023-02-20T06:34:44;10.32;;;8.38;;
33864;SDS011;20159;51.072;13.526;2023-02-20T06:37:10;9.27;;;7.57;;
33864;SDS011;20159;51.072;13.526;2023-02-20T06:39:36;10.32;;;8.63;;
33864;SDS011;20159;51.072;13.526;2023-02-20T06:42:03;9.60;;;7.88;;
33864;SDS011;20159;51.072;13.526;2023-02-20T06:44:29;10.90;;;8.05;;
33864;SDS011;20159;51.072;13.526;2023-02-20T06:46:57;9.10;;;7.78;;
33864;SDS011;20159;51.072;13.526;2023-02-20T06:49:22;10.90;;;7.80;;
33864;SDS011;20159;51.072;13.526;2023-02-20T06:51:51;7.53;;;6.38;;
33864;SDS011;20159;51.072;13.526;2023-02-20T06:54:17;8.90;;;7.30;;
33864;SDS011;20159;51.072;13.526;2023-02-20T06:56:45;9.73;;;7.03;;
33864;SDS011;20159;51.072;13.526;2023-02-20T06:59:11;9.48;;;7.50;;
33864;SDS011;20159;51.072;13.526;2023-02-20T07:01:39;8.85;;;7.50;;
33864;SDS011;20159;51.072;13.526;2023-02-20T07:04:06;12.70;;;6.82;;
33864;SDS011;20159;51.072;13.526;2023-02-20T07:06:34;7.47;;;6.72;;
33864;SDS011;20159;51.072;13.526;2023-02-20T07:09:01;8.50;;;6.57;;
33864;SDS011;20159;51.072;13.526;2023-02-20T07:11:27;7.65;;;6.63;;
33864;SDS011;20159;51.072;13.526;2023-02-20T07:13:52;8.32;;;7.07;;
33864;SDS011;20159;51.072;13.526;2023-02-20T07:16:18;7.85;;;6.63;;
33864;SDS011;20159;51.072;13.526;2023-02-20T07:18:43;8.10;;;6.55;;
33864;SDS011;20159;51.072;13.526;2023-02-20T07:21:09;8.32;;;6.43;;
33864;SDS011;20159;51.072;13.526;2023-02-20T07:23:36;6.80;;;6.10;;
33864;SDS011;20159;51.072;13.526;2023-02-20T07:26:01;7.57;;;6.38;;
33864;SDS011;20159;51.072;13.526;2023-02-20T07:28:27;7.65;;;6.35;;
33864;SDS011;20159;51.072;13.526;2023-02-20T07:30:52;7.53;;;6.28;;
33864;SDS011;20159;51.072;13.526;2023-02-20T07:33:18;8.05;;;6.20;;
33864;SDS011;20159;51.072;13.526;2023-02-20T07:35:43;7.88;;;6.35;;
33864;SDS011;20159;51.072;13.526;2023-02-20T07:38:09;6.82;;;6.13;;
33864;SDS011;20159;51.072;13.526;2023-02-20T07:40:35;8.38;;;6.55;;
33864;SDS011;20159;51.072;13.526;2023-02-20T07:43:00;7.60;;;6.80;;
33864;SDS011;20159;51.072;13.526;2023-02-20T07:45:26;7.18;;;6.47;;
33864;SDS011;20159;51.072;13.526;2023-02-20T07:47:51;7.93;;;6.40;;
33864;SDS011;20159;51.072;13.526;2023-02-20T07:50:17;8.02;;;6.75;;
33864;SDS011;20159;51.072;13.526;2023-02-20T07:52:43;7.10;;;6.15;;
33864;SDS011;20159;51.072;13.526;2023-02-20T07:55:13;7.47;;;6.20;;
33864;SDS011;20159;51.072;13.526;2023-02-20T07:57:40;7.07;;;6.32;;
33864;SDS011;20159;51.072;13.526;2023-02-20T08:00:06;6.57;;;5.88;;
33864;SDS011;20159;51.072;13.526;2023-02-20T08:02:32;6.97;;;5.88;;
33864;SDS011;20159;51.072;13.526;2023-02-20T08:04:57;7.45;;;6.57;;
33864;SDS011;20159;51.072;13.526;2023-02-20T08:07:24;6.45;;;5.82;;
33864;SDS011;20159;51.072;13.526;2023-02-20T08:09:49;8.05;;;6.53;;
33864;SDS011;20159;51.072;13.526;2023-02-20T08:12:15;7.50;;;6.47;;
33864;SDS011;20159;51.072;13.526;2023-02-20T08:14:40;7.10;;;6.40;;
33864;SDS011;20159;51.072;13.526;2023-02-20T08:17:06;7.40;;;6.63;;
33864;SDS011;20159;51.072;13.526;2023-02-20T08:19:31;7.28;;;6.43;;
33864;SDS011;20159;51.072;13.526;2023-02-20T08:21:57;9.65;;;8.10;;
33864;SDS011;20159;51.072;13.526;2023-02-20T08:24:22;8.18;;;7.13;;
33864;SDS011;20159;51.072;13.526;2023-02-20T08:26:48;8.57;;;7.68;;
33864;SDS011;20159;51.072;13.526;2023-02-20T08:29:14;8.05;;;6.97;;
33864;SDS011;20159;51.072;13.526;2023-02-20T08:31:40;8.18;;;7.30;;
33864;SDS011;20159;51.072;13.526;2023-02-20T08:34:06;8.73;;;7.82;;
33864;SDS011;20159;51.072;13.526;2023-02-20T08:36:32;8.90;;;8.00;;
33864;SDS011;20159;51.072;13.526;2023-02-20T08:38:57;8.02;;;6.95;;
33864;SDS011;20159;51.072;13.526;2023-02-20T08:41:27;8.02;;;7.22;;
33864;SDS011;20159;51.072;13.526;2023-02-20T08:43:53;9.27;;;7.32;;
33864;SDS011;20159;51.072;13.526;2023-02-20T08:46:19;7.20;;;6.45;;
33864;SDS011;20159;51.072;13.526;2023-02-20T08:48:44;7.07;;;6.38;;
33864;SDS011;20159;51.072;13.526;2023-02-20T08:51:10;6.88;;;6.20;;
33864;SDS011;20159;51.072;13.526;2023-02-20T08:53:36;7.68;;;6.15;;
33864;SDS011;20159;51.072;13.526;2023-02-20T08:56:02;6.00;;;5.40;;
33864;SDS011;20159;51.072;13.526;2023-02-20T08:58:29;7.45;;;6.38;;
33864;SDS011;20159;51.072;13.526;2023-02-20T09:00:54;6.10;;;5.50;;
33864;SDS011;20159;51.072;13.526;2023-02-20T09:03:20;5.93;;;5.18;;
33864;SDS011;20159;51.072;13.526;2023-02-20T09:05:46;4.97;;;4.43;;
33864;SDS011;20159;51.072;13.526;2023-02-20T09:08:11;4.57;;;4.18;;
33864;SDS011;20159;51.072;13.526;2023-02-20T09:10:37;4.85;;;4.35;;
33864;SDS011;20159;51.072;13.526;2023-02-20T09:13:02;7.15;;;5.00;;
33864;SDS011;20159;51.072;13.526;2023-02-20T09:15:28;5.95;;;5.10;;
33864;SDS011;20159;51.072;13.526;2023-02-20T09:17:55;5.65;;;4.10;;
33864;SDS011;20159;51.072;13.526;2023-02-20T09:20:21;5.10;;;4.50;;
33864;SDS011;20159;51.072;13.526;2023-02-20T09:22:47;5.35;;;4.43;;
33864;SDS011;20159;51.072;13.526;2023-02-20T09:25:14;4.63;;;3.80;;
33864;SDS011;20159;51.072;13.526;2023-02-20T09:27:40;4.32;;;3.45;;
33864;SDS011;20159;51.072;13.526;2023-02-20T09:30:06;3.47;;;3.15;;
33864;SDS011;20159;51.072;13.526;2023-02-20T09:32:32;4.88;;;3.42;;
33864;SDS011;20159;51.072;13.526;2023-02-20T09:34:57;3.95;;;3.22;;
33864;SDS011;20159;51.072;13.526;2023-02-20T09:37:23;4.22;;;3.20;;
33864;SDS011;20159;51.072;13.526;2023-02-20T09:39:49;5.38;;;3.20;;
33864;SDS011;20159;51.072;13.526;2023-02-20T09:45:12;3.72;;;3.05;;
33864;SDS011;20159;51.072;13.526;2023-02-20T09:47:53;3.78;;;3.17;;
33864;SDS011;20159;51.072;13.526;2023-02-20T09:52:53;3.97;;;3.00;;
33864;SDS011;20159;51.072;13.526;2023-02-20T09:55:24;3.70;;;2.80;;
33864;SDS011;20159;51.072;13.526;2023-02-20T09:57:58;4.25;;;2.70;;
33864;SDS011;20159;51.072;13.526;2023-02-20T10:00:29;5.75;;;2.50;;
33864;SDS011;20159;51.072;13.526;2023-02-20T10:05:44;6.32;;;2.47;;
33864;SDS011;20159;51.072;13.526;2023-02-20T10:08:10;3.67;;;2.58;;
33864;SDS011;20159;51.072;13.526;2023-02-20T10:10:42;4.07;;;3.00;;
33864;SDS011;20159;51.072;13.526;2023-02-20T10:21:11;3.28;;;2.53;;
33864;SDS011;20159;51.072;13.526;2023-02-20T10:26:02;4.35;;;2.20;;
33864;SDS011;20159;51.072;13.526;2023-02-20T10:28:30;2.88;;;2.50;;
33864;SDS011;20159;51.072;13.526;2023-02-20T10:30:58;3.50;;;2.00;;
33864;SDS011;20159;51.072;13.526;2023-02-20T10:33:35;3.00;;;2.38;;
33864;SDS011;20159;51.072;13.526;2023-02-20T10:41:31;3.45;;;2.33;;
33864;SDS011;20159;51.072;13.526;2023-02-20T10:44:15;3.08;;;2.20;;
33864;SDS011;20159;51.072;13.526;2023-02-20T10:47:04;4.72;;;2.28;;
33864;SDS011;20159;51.072;13.526;2023-02-20T10:49:36;2.80;;;2.13;;
33864;SDS011;20159;51.072;13.526;2023-02-20T10:52:09;3.28;;;2.05;;
33864;SDS011;20159;51.072;13.526;2023-02-20T10:54:40;4.13;;;2.20;;
33864;SDS011;20159;51.072;13.526;2023-02-20T10:57:11;3.53;;;2.47;;
33864;SDS011;20159;51.072;13.526;2023-02-20T11:02:32;4.97;;;1.95;;
33864;SDS011;20159;51.072;13.526;2023-02-20T11:05:08;3.83;;;1.98;;
33864;SDS011;20159;51.072;13.526;2023-02-20T11:07:37;2.72;;;2.10;;
33864;SDS011;20159;51.072;13.526;2023-02-20T11:10:03;2.88;;;2.00;;
33864;SDS011;20159;51.072;13.526;2023-02-20T11:12:32;2.00;;;1.80;;
33864;SDS011;20159;51.072;13.526;2023-02-20T11:15:06;2.55;;;2.00;;
33864;SDS011;20159;51.072;13.526;2023-02-20T11:17:34;2.60;;;1.85;;
33864;SDS011;20159;51.072;13.526;2023-02-20T11:20:03;1.98;;;1.70;;
33864;SDS011;20159;51.072;13.526;2023-02-20T11:22:46;2.28;;;1.60;;
33864;SDS011;20159;51.072;13.526;2023-02-20T11:27:59;4.25;;;1.83;;
33864;SDS011;20159;51.072;13.526;2023-02-20T11:30:37;2.22;;;1.77;;
33864;SDS011;20159;51.072;13.526;2023-02-20T11:33:16;3.00;;;1.77;;
33864;SDS011;20159;51.072;13.526;2023-02-20T11:35:44;2.13;;;1.60;;
33864;SDS011;20159;51.072;13.526;2023-02-20T11:38:18;2.22;;;1.45;;
33864;SDS011;20159;51.072;13.526;2023-02-20T11:40:49;3.15;;;1.58;;
33864;SDS011;20159;51.072;13.526;2023-02-20T11:43:34;4.72;;;2.10;;
33864;SDS011;20159;51.072;13.526;2023-02-20T11:46:20;3.15;;;1.70;;
33864;SDS011;20159;51.072;13.526;2023-02-20T11:56:46;2.25;;;1.30;;
33864;SDS011;20159;51.072;13.526;2023-02-20T12:01:51;2.88;;;1.20;;
33864;SDS011;20159;51.072;13.526;2023-02-20T12:04:18;2.70;;;1.40;;
33864;SDS011;20159;51.072;13.526;2023-02-20T12:06:45;2.17;;;1.40;;
33864;SDS011;20159;51.072;13.526;2023-02-20T12:09:21;3.83;;;1.50;;
33864;SDS011;20159;51.072;13.526;2023-02-20T12:11:53;2.15;;;1.40;;
33864;SDS011;20159;51.072;13.526;2023-02-20T12:14:21;2.15;;;1.27;;
33864;SDS011;20159;51.072;13.526;2023-02-20T12:19:27;2.08;;;1.35;;
33864;SDS011;20159;51.072;13.526;2023-02-20T12:22:31;2.83;;;1.30;;
33864;SDS011;20159;51.072;13.526;2023-02-20T12:27:34;4.57;;;1.63;;
33864;SDS011;20159;51.072;13.526;2023-02-20T12:30:18;3.35;;;2.13;;
33864;SDS011;20159;51.072;13.526;2023-02-20T12:36:24;2.10;;;1.30;;
33864;SDS011;20159;51.072;13.526;2023-02-20T12:38:56;1.70;;;1.40;;
33864;SDS011;20159;51.072;13.526;2023-02-20T12:41:28;3.45;;;1.90;;
33864;SDS011;20159;51.072;13.526;2023-02-20T12:49:21;1.92;;;1.30;;
33864;SDS011;20159;51.072;13.526;2023-02-20T12:52:16;1.75;;;1.10;;
33864;SDS011;20159;51.072;13.526;2023-02-20T12:54:51;3.08;;;1.30;;
33864;SDS011;20159;51.072;13.526;2023-02-20T12:57:41;3.65;;;1.30;;
33864;SDS011;20159;51.072;13.526;2023-02-20T13:00:39;3.30;;;1.30;;
33864;SDS011;20159;51.072;13.526;2023-02-20T13:06:12;2.75;;;1.17;;
33864;SDS011;20159;51.072;13.526;2023-02-20T13:08:52;2.83;;;1.00;;
33864;SDS011;20159;51.072;13.526;2023-02-20T13:11:41;1.58;;;1.10;;
33864;SDS011;20159;51.072;13.526;2023-02-20T13:19:14;2.35;;;1.30;;
33864;SDS011;20159;51.072;13.526;2023-02-20T13:22:03;2.03;;;1.48;;
33864;SDS011;20159;51.072;13.526;2023-02-20T13:24:34;1.60;;;1.15;;
33864;SDS011;20159;51.072;13.526;2023-02-20T13:27:08;2.03;;;1.50;;
33864;SDS011;20159;51.072;13.526;2023-02-20T13:29:36;2.47;;;1.20;;
33864;SDS011;20159;51.072;13.526;2023-02-20T13:32:20;2.60;;;1.50;;
33864;SDS011;20159;51.072;13.526;2023-02-20T13:34:49;2.50;;;1.30;;
33864;SDS011;20159;51.072;13.526;2023-02-20T13:40:10;2.17;;;1.25;;
33864;SDS011;20159;51.072;13.526;2023-02-20T13:45:40;1.63;;;1.30;;
33864;SDS011;20159;51.072;13.526;2023-02-20T13:48:16;1.90;;;1.38;;
33864;SDS011;20159;51.072;13.526;2023-02-20T13:53:42;1.90;;;1.08;;
33864;SDS011;20159;51.072;13.526;2023-02-20T13:56:17;2.30;;;1.00;;
33864;SDS011;20159;51.072;13.526;2023-02-20T13:58:44;1.98;;;1.05;;
33864;SDS011;20159;51.072;13.526;2023-02-20T14:01:11;1.85;;;1.00;;
33864;SDS011;20159;51.072;13.526;2023-02-20T14:03:36;2.60;;;1.25;;
33864;SDS011;20159;51.072;13.526;2023-02-20T14:08:31;2.72;;;1.38;;
33864;SDS011;20159;51.072;13.526;2023-02-20T14:11:08;2.72;;;1.33;;
33864;SDS011;20159;51.072;13.526;2023-02-20T14:13:50;1.75;;;1.00;;
33864;SDS011;20159;51.072;13.526;2023-02-20T14:16:35;2.00;;;1.00;;
33864;SDS011;20159;51.072;13.526;2023-02-20T14:19:12;2.70;;;1.30;;
33864;SDS011;20159;51.072;13.526;2023-02-20T14:21:40;2.13;;;1.30;;
33864;SDS011;20159;51.072;13.526;2023-02-20T14:24:10;2.53;;;1.17;;
33864;SDS011;20159;51.072;13.526;2023-02-20T14:26:43;3.53;;;1.20;;
33864;SDS011;20159;51.072;13.526;2023-02-20T14:29:20;2.13;;;1.05;;
33864;SDS011;20159;51.072;13.526;2023-02-20T14:31:53;1.98;;;0.93;;
33864;SDS011;20159;51.072;13.526;2023-02-20T14:34:41;2.08;;;1.08;;
33864;SDS011;20159;51.072;13.526;2023-02-20T14:37:33;2.78;;;1.08;;
33864;SDS011;20159;51.072;13.526;2023-02-20T14:40:16;2.28;;;1.40;;
33864;SDS011;20159;51.072;13.526;2023-02-20T14:42:48;2.50;;;1.30;;
33864;SDS011;20159;51.072;13.526;2023-02-20T14:45:23;2.13;;;1.27;;
33864;SDS011;20159;51.072;13.526;2023-02-20T14:50:19;1.50;;;0.98;;
33864;SDS011;20159;51.072;13.526;2023-02-20T14:53:11;3.05;;;1.27;;
33864;SDS011;20159;51.072;13.526;2023-02-20T14:55:38;1.00;;;0.70;;
33864;SDS011;20159;51.072;13.526;2023-02-20T14:58:05;2.08;;;1.05;;
33864;SDS011;20159;51.072;13.526;2023-02-20T15:00:42;2.10;;;1.20;;
33864;SDS011;20159;51.072;13.526;2023-02-20T15:03:30;2.80;;;1.25;;
33864;SDS011;20159;51.072;13.526;2023-02-20T15:05:58;4.15;;;1.02;;
33864;SDS011;20159;51.072;13.526;2023-02-20T15:08:28;3.65;;;1.30;;
33864;SDS011;20159;51.072;13.526;2023-02-20T15:11:04;3.30;;;1.23;;
33864;SDS011;20159;51.072;13.526;2023-02-20T15:13:34;2.25;;;1.20;;
33864;SDS011;20159;51.072;13.526;2023-02-20T15:16:05;2.00;;;1.20;;
33864;SDS011;20159;51.072;13.526;2023-02-20T15:18:38;4.18;;;1.08;;
33864;SDS011;20159;51.072;13.526;2023-02-20T15:21:08;1.92;;;1.17;;
33864;SDS011;20159;51.072;13.526;2023-02-20T15:23:37;1.63;;;1.20;;
33864;SDS011;20159;51.072;13.526;2023-02-20T15:29:09;1.80;;;1.20;;
33864;SDS011;20159;51.072;13.526;2023-02-20T15:31:34;1.65;;;1.10;;
33864;SDS011;20159;51.072;13.526;2023-02-20T15:34:00;2.67;;;1.15;;
33864;SDS011;20159;51.072;13.526;2023-02-20T15:36:25;1.67;;;0.95;;
33864;SDS011;20159;51.072;13.526;2023-02-20T15:38:51;3.30;;;1.55;;
33864;SDS011;20159;51.072;13.526;2023-02-20T15:41:18;2.03;;;1.20;;
33864;SDS011;20159;51.072;13.526;2023-02-20T15:43:45;2.13;;;1.30;;
33864;SDS011;20159;51.072;13.526;2023-02-20T15:46:12;1.92;;;1.35;;
33864;SDS011;20159;51.072;13.526;2023-02-20T15:48:38;2.22;;;1.33;;
33864;SDS011;20159;51.072;13.526;2023-02-20T15:51:04;2.30;;;1.23;;
33864;SDS011;20159;51.072;13.526;2023-02-20T15:53:29;3.63;;;1.30;;
33864;SDS011;20159;51.072;13.526;2023-02-20T15:55:57;2.58;;;1.30;;
33864;SDS011;20159;51.072;13.526;2023-02-20T15:58:25;1.90;;;1.00;;
33864;SDS011;20159;51.072;13.526;2023-02-20T16:00:57;2.40;;;1.27;;
33864;SDS011;20159;51.072;13.526;2023-02-20T16:03:25;1.40;;;1.08;;
33864;SDS011;20159;51.072;13.526;2023-02-20T16:05:52;2.63;;;1.40;;
33864;SDS011;20159;51.072;13.526;2023-02-20T16:08:18;2.75;;;1.33;;
33864;SDS011;20159;51.072;13.526;2023-02-20T16:10:45;3.05;;;1.50;;
33864;SDS011;20159;51.072;13.526;2023-02-20T16:13:30;2.95;;;1.40;;
33864;SDS011;20159;51.072;13.526;2023-02-20T16:15:56;1.45;;;1.13;;
33864;SDS011;20159;51.072;13.526;2023-02-20T16:18:22;3.47;;;1.40;;
33864;SDS011;20159;51.072;13.526;2023-02-20T16:20:51;3.22;;;1.40;;
33864;SDS011;20159;51.072;13.526;2023-02-20T16:23:17;3.10;;;1.50;;
33864;SDS011;20159;51.072;13.526;2023-02-20T16:25:42;2.15;;;1.50;;